createdAt,value
2018-05-17T00:02:04.029Z,16.20
2018-05-17T00:04:30.688Z,16.10
2018-05-17T00:06:56.593Z,16.10
2018-05-17T00:09:23.305Z,16.00
2018-05-17T00:11:49.206Z,16.00
2018-05-17T00:14:15.157Z,16.10
2018-05-17T00:16:41.056Z,16.00
2018-05-17T00:19:07.029Z,16.10
2018-05-17T00:21:32.988Z,16.10
2018-05-17T00:23:58.893Z,16.20
2018-05-17T00:26:24.808Z,16.10
2018-05-17T00:28:50.779Z,16.10
2018-05-17T00:31:16.702Z,15.90
2018-05-17T00:33:42.660Z,16.00
2018-05-17T00:36:08.572Z,15.90
2018-05-17T00:38:34.484Z,15.90
2018-05-17T00:41:01.351Z,15.70
2018-05-17T00:43:27.318Z,15.70
2018-05-17T00:45:53.236Z,15.70
2018-05-17T00:48:19.156Z,15.60
2018-05-17T00:50:45.080Z,15.60
2018-05-17T00:53:23.473Z,15.70
2018-05-17T00:55:49.368Z,15.60
2018-05-17T00:58:15.298Z,15.60
2018-05-17T01:00:41.271Z,15.60
2018-05-17T01:03:07.253Z,15.50
2018-05-17T01:05:33.188Z,15.50
2018-05-17T01:07:59.106Z,15.60
2018-05-17T01:10:25.080Z,15.70
2018-05-17T01:12:51.716Z,15.50
2018-05-17T01:15:18.367Z,15.50
2018-05-17T01:17:44.277Z,15.50
2018-05-17T01:20:10.926Z,15.40
2018-05-17T01:22:36.847Z,15.30
2018-05-17T01:25:02.747Z,15.40
2018-05-17T01:27:29.432Z,15.40
2018-05-17T01:29:55.388Z,15.40
2018-05-17T01:32:21.272Z,15.40
2018-05-17T01:34:47.248Z,15.30
2018-05-17T01:37:26.505Z,15.30
2018-05-17T01:39:52.413Z,15.30
2018-05-17T01:42:19.145Z,15.20
2018-05-17T01:44:45.809Z,15.30
2018-05-17T01:47:11.709Z,15.30
2018-05-17T01:49:38.340Z,15.40
2018-05-17T01:52:05.046Z,15.30
2018-05-17T01:54:30.932Z,15.30
2018-05-17T01:56:56.843Z,15.20
2018-05-17T01:59:22.829Z,15.20
2018-05-17T02:01:48.746Z,15.10
2018-05-17T02:04:14.684Z,15.10
2018-05-17T02:06:41.339Z,15.00
2018-05-17T02:09:07.220Z,15.00
2018-05-17T02:11:33.455Z,15.00
2018-05-17T02:13:59.385Z,15.00
2018-05-17T02:16:25.347Z,14.90
2018-05-17T02:18:51.245Z,15.00
2018-05-17T02:21:17.141Z,14.90
2018-05-17T02:23:43.069Z,14.80
2018-05-17T02:26:09.721Z,14.80
2018-05-17T02:28:36.412Z,14.80
2018-05-17T02:31:02.317Z,14.80
2018-05-17T02:33:28.203Z,14.80
2018-05-17T02:35:54.882Z,14.70
2018-05-17T02:38:20.775Z,14.70
2018-05-17T02:40:46.703Z,14.60
2018-05-17T02:43:12.597Z,14.60
2018-05-17T02:45:39.228Z,14.60
2018-05-17T02:48:05.910Z,14.50
2018-05-17T02:50:31.823Z,14.50
2018-05-17T02:52:57.743Z,14.40
2018-05-17T02:55:23.649Z,14.40
2018-05-17T02:57:49.562Z,14.50
2018-05-17T03:00:16.241Z,14.50
2018-05-17T03:02:42.128Z,14.50
2018-05-17T03:05:08.054Z,14.50
2018-05-17T03:07:33.992Z,14.50
2018-05-17T03:09:59.888Z,14.50
2018-05-17T03:12:26.536Z,14.50
2018-05-17T03:14:52.447Z,14.50
2018-05-17T03:17:18.384Z,14.50
2018-05-17T03:19:44.325Z,14.50
2018-05-17T03:22:10.245Z,14.40
2018-05-17T03:24:36.143Z,14.40
2018-05-17T03:27:02.064Z,14.50
2018-05-17T03:29:28.001Z,14.40
2018-05-17T03:31:53.937Z,14.40
2018-05-17T03:34:19.834Z,14.30
2018-05-17T03:36:45.780Z,14.30
2018-05-17T03:39:11.707Z,14.40
2018-05-17T03:41:37.601Z,14.40
2018-05-17T03:44:03.514Z,14.30
2018-05-17T03:46:29.409Z,14.30
2018-05-17T03:48:57.855Z,14.30
2018-05-17T03:51:23.808Z,14.30
2018-05-17T03:53:50.549Z,14.20
2018-05-17T03:56:17.232Z,14.30
2018-05-17T03:58:43.129Z,14.20
2018-05-17T04:04:22.299Z,14.10
2018-05-17T04:06:48.228Z,14.10
2018-05-17T04:09:14.209Z,14.00
2018-05-17T04:11:40.879Z,14.00
2018-05-17T04:14:06.806Z,14.00
2018-05-17T04:16:32.710Z,14.10
2018-05-17T04:18:59.698Z,14.10
2018-05-17T04:21:25.665Z,14.10
2018-05-17T04:23:51.565Z,14.20
2018-05-17T04:26:18.556Z,14.30
2018-05-17T04:28:44.453Z,14.10
2018-05-17T04:31:10.390Z,14.40
2018-05-17T04:33:36.315Z,14.50
2018-05-17T04:36:02.305Z,14.50
2018-05-17T04:38:28.263Z,14.50
2018-05-17T04:40:54.272Z,14.70
2018-05-17T04:43:20.212Z,14.80
2018-05-17T04:45:46.161Z,14.90
2018-05-17T04:48:12.060Z,15.00
2018-05-17T04:50:37.974Z,15.00
2018-05-17T04:53:03.878Z,15.20
2018-05-17T04:55:29.836Z,15.20
2018-05-17T04:57:55.725Z,15.20
2018-05-17T05:00:21.674Z,15.50
2018-05-17T05:02:47.674Z,16.00
2018-05-17T05:05:13.484Z,16.30
2018-05-17T05:07:39.425Z,16.40
2018-05-17T05:10:05.355Z,16.80
2018-05-17T05:12:31.354Z,17.00
2018-05-17T05:14:57.250Z,17.40
2018-05-17T05:17:23.933Z,17.20
2018-05-17T05:19:49.865Z,17.10
2018-05-17T05:22:15.818Z,17.00
2018-05-17T05:24:42.496Z,16.90
2018-05-17T05:27:08.409Z,16.90
2018-05-17T05:29:34.306Z,16.90
2018-05-17T05:32:00.956Z,16.60
2018-05-17T05:34:26.877Z,16.60
2018-05-17T05:36:52.813Z,16.50
2018-05-17T05:39:18.839Z,16.70
2018-05-17T05:41:44.750Z,16.70
2018-05-17T05:44:10.680Z,17.00
2018-05-17T05:46:36.581Z,17.10
2018-05-17T05:49:02.491Z,17.10
2018-05-17T05:51:29.168Z,17.30
2018-05-17T05:53:55.073Z,17.30
2018-05-17T05:56:21.101Z,17.40
2018-05-17T05:58:47.076Z,17.50
2018-05-17T06:01:12.977Z,17.40
2018-05-17T06:03:38.910Z,17.70
2018-05-17T06:06:04.828Z,17.80
2018-05-17T06:08:30.746Z,18.20
2018-05-17T06:10:56.655Z,18.50
2018-05-17T06:13:22.572Z,18.50
2018-05-17T06:15:48.517Z,18.40
2018-05-17T06:18:14.417Z,18.80
2018-05-17T06:20:40.344Z,19.40
2018-05-17T06:23:06.253Z,20.00
2018-05-17T06:25:32.157Z,20.70
2018-05-17T06:27:58.075Z,20.70
2018-05-17T06:30:24.054Z,21.20
2018-05-17T06:32:50.917Z,21.70
2018-05-17T06:35:17.697Z,22.40
2018-05-17T06:37:43.728Z,22.40
2018-05-17T06:40:09.534Z,22.40
2018-05-17T06:42:35.464Z,22.40
2018-05-17T06:45:02.094Z,22.10
2018-05-17T06:47:27.993Z,22.00
2018-05-17T06:49:53.900Z,21.90
2018-05-17T06:52:20.575Z,22.40
2018-05-17T06:54:46.493Z,22.30
2018-05-17T06:57:12.475Z,22.40
2018-05-17T06:59:39.119Z,21.90
2018-05-17T07:02:05.835Z,22.70
2018-05-17T07:04:31.745Z,22.60
2018-05-17T07:06:57.668Z,23.30
2018-05-17T07:09:23.593Z,23.30
2018-05-17T07:11:49.505Z,23.60
2018-05-17T07:14:15.552Z,23.70
2018-05-17T07:16:42.224Z,24.60
2018-05-17T07:19:08.211Z,24.60
2018-05-17T07:21:34.108Z,25.10
2018-05-17T07:24:00.070Z,24.70
2018-05-17T07:26:26.754Z,25.20
2018-05-17T07:28:52.656Z,25.10
2018-05-17T07:31:18.663Z,25.80
2018-05-17T07:33:44.580Z,25.90
2018-05-17T07:36:11.243Z,25.40
2018-05-17T07:38:37.147Z,25.40
2018-05-17T07:41:03.036Z,25.10
2018-05-17T07:43:29.021Z,25.00
2018-05-17T07:45:54.919Z,25.20
2018-05-17T07:48:20.814Z,25.50
2018-05-17T07:50:47.622Z,25.50
2018-05-17T07:53:13.521Z,25.40
2018-05-17T07:55:39.613Z,25.30
2018-05-17T07:58:05.460Z,24.90
2018-05-17T08:00:31.486Z,23.90
2018-05-17T08:02:57.292Z,23.80
2018-05-17T08:05:23.212Z,24.00
2018-05-17T08:07:49.124Z,24.10
2018-05-17T08:10:15.017Z,24.20
2018-05-17T08:12:41.667Z,25.50
2018-05-17T08:15:08.304Z,26.20
2018-05-17T08:17:34.944Z,26.80
2018-05-17T08:20:01.710Z,26.80
2018-05-17T08:22:27.609Z,26.80
2018-05-17T08:24:53.617Z,26.00
2018-05-17T08:27:20.243Z,27.20
2018-05-17T08:29:46.138Z,27.20
2018-05-17T08:32:12.040Z,27.00
2018-05-17T08:34:37.935Z,27.50
2018-05-17T08:37:03.923Z,27.80
2018-05-17T08:39:29.806Z,28.30
2018-05-17T08:41:55.713Z,27.40
2018-05-17T08:44:21.720Z,27.20
2018-05-17T08:46:47.628Z,27.70
2018-05-17T08:49:14.273Z,28.10
2018-05-17T08:51:41.077Z,28.00
2018-05-17T08:54:06.967Z,28.00
2018-05-17T08:56:32.861Z,28.00
2018-05-17T08:58:58.761Z,27.80
2018-05-17T09:01:25.434Z,27.30
2018-05-17T09:03:51.360Z,27.30
2018-05-17T09:06:17.316Z,27.60
2018-05-17T09:08:43.922Z,27.80
2018-05-17T09:11:09.816Z,27.80
2018-05-17T09:13:36.567Z,28.40
2018-05-17T09:16:02.375Z,28.30
2018-05-17T09:18:29.035Z,25.60
2018-05-17T09:20:54.978Z,25.50
2018-05-17T09:23:20.893Z,25.90
2018-05-17T09:25:46.814Z,26.00
2018-05-17T09:28:12.720Z,24.60
2018-05-17T09:30:38.671Z,24.40
2018-05-17T09:33:04.689Z,24.80
2018-05-17T09:35:30.593Z,25.20
2018-05-17T09:37:56.737Z,25.60
2018-05-17T09:40:22.698Z,25.10
2018-05-17T09:42:49.427Z,25.30
2018-05-17T09:45:15.371Z,25.30
2018-05-17T09:47:42.156Z,23.90
2018-05-17T09:50:08.010Z,23.90
2018-05-17T09:52:34.683Z,23.30
2018-05-17T09:55:00.656Z,23.30
2018-05-17T09:57:26.575Z,23.20
2018-05-17T09:59:52.540Z,23.40
2018-05-17T10:02:18.448Z,23.90
2018-05-17T10:04:44.538Z,24.30
2018-05-17T10:07:10.439Z,24.30
2018-05-17T10:09:36.352Z,23.50
2018-05-17T10:12:02.269Z,23.80
2018-05-17T10:14:28.185Z,23.70
2018-05-17T10:16:54.157Z,23.50
2018-05-17T10:19:20.104Z,23.30
2018-05-17T10:21:46.773Z,23.40
2018-05-17T10:24:12.745Z,23.40
2018-05-17T10:26:39.499Z,25.00
2018-05-17T10:29:05.719Z,25.00
2018-05-17T10:31:31.622Z,25.00
2018-05-17T10:33:57.541Z,24.70
2018-05-17T10:36:23.476Z,24.60
2018-05-17T10:38:49.470Z,24.30
2018-05-17T10:41:15.588Z,24.00
2018-05-17T10:43:41.570Z,24.40
2018-05-17T10:46:07.506Z,25.10
2018-05-17T10:48:33.431Z,24.40
2018-05-17T10:50:59.364Z,24.80
2018-05-17T10:53:25.269Z,25.30
2018-05-17T10:55:51.181Z,26.20
2018-05-17T10:58:17.114Z,26.10
2018-05-17T11:00:43.071Z,26.10
2018-05-17T11:03:08.969Z,25.60
2018-05-17T11:05:36.399Z,25.50
2018-05-17T11:08:02.318Z,25.40
2018-05-17T11:10:28.217Z,26.00
2018-05-17T11:12:54.925Z,26.10
2018-05-17T11:15:20.878Z,26.10
2018-05-17T11:17:46.773Z,26.10
2018-05-17T11:20:12.726Z,25.60
2018-05-17T11:22:38.659Z,25.50
2018-05-17T11:25:05.332Z,25.40
2018-05-17T11:27:31.455Z,25.30
2018-05-17T11:29:57.462Z,26.00
2018-05-17T11:32:23.428Z,27.50
2018-05-17T11:34:49.345Z,26.40
2018-05-17T11:37:15.292Z,26.60
2018-05-17T11:39:42.043Z,26.00
2018-05-17T11:42:07.953Z,25.90
2018-05-17T11:44:34.655Z,26.10
2018-05-17T11:47:00.564Z,26.00
2018-05-17T11:49:26.529Z,25.50
2018-05-17T11:51:52.461Z,25.00
2018-05-17T11:54:19.143Z,25.30
2018-05-17T11:56:45.062Z,25.30
2018-05-17T11:59:11.112Z,24.60
2018-05-17T12:01:37.087Z,24.50
2018-05-17T12:04:02.944Z,24.60
2018-05-17T12:06:28.865Z,25.00
2018-05-17T12:08:54.778Z,25.20
2018-05-17T12:11:20.733Z,25.20
2018-05-17T12:13:47.452Z,25.50
2018-05-17T12:16:14.016Z,24.90
2018-05-17T12:18:40.762Z,25.60
2018-05-17T12:21:06.925Z,26.10
2018-05-17T12:23:32.933Z,25.80
2018-05-17T12:25:59.108Z,26.10
2018-05-17T12:28:25.587Z,26.60
2018-05-17T12:30:52.142Z,26.50
2018-05-17T12:33:18.112Z,25.80
2018-05-17T12:35:44.016Z,25.90
2018-05-17T12:38:09.916Z,25.50
2018-05-17T12:40:35.896Z,25.40
2018-05-17T12:43:01.844Z,25.80
2018-05-17T12:45:27.804Z,26.20
2018-05-17T12:47:53.745Z,26.20
2018-05-17T12:50:19.713Z,26.40
2018-05-17T12:52:45.663Z,26.80
2018-05-17T12:55:11.569Z,26.50
2018-05-17T12:57:37.555Z,26.40
2018-05-17T13:00:04.219Z,25.80
2018-05-17T13:02:30.237Z,25.80
2018-05-17T13:07:30.410Z,26.00
2018-05-17T13:09:56.314Z,26.00
2018-05-17T13:12:22.236Z,26.00
2018-05-17T13:14:48.229Z,25.70
2018-05-17T13:17:14.186Z,26.00
2018-05-17T13:19:40.122Z,26.60
2018-05-17T13:22:06.052Z,26.40
2018-05-17T13:24:31.952Z,26.00
2018-05-17T13:26:57.901Z,25.90
2018-05-17T13:29:23.843Z,25.50
2018-05-17T13:31:50.501Z,25.20
2018-05-17T13:34:16.402Z,25.20
2018-05-17T13:36:43.137Z,25.80
2018-05-17T13:39:09.039Z,25.80
2018-05-17T13:41:34.973Z,25.60
2018-05-17T13:44:01.632Z,25.50
2018-05-17T13:46:27.565Z,25.50
2018-05-17T13:48:53.778Z,25.40
2018-05-17T13:51:20.438Z,25.40
2018-05-17T13:53:46.377Z,25.40
2018-05-17T13:56:12.286Z,24.90
2018-05-17T13:58:38.257Z,24.90
2018-05-17T14:01:04.154Z,24.60
2018-05-17T14:03:30.104Z,24.30
2018-05-17T14:05:56.057Z,24.20
2018-05-17T14:08:22.005Z,24.30
2018-05-17T14:10:48.325Z,24.20
2018-05-17T14:13:15.097Z,23.70
2018-05-17T14:15:41.043Z,23.60
2018-05-17T14:18:07.745Z,23.70
2018-05-17T14:20:33.681Z,23.70
2018-05-17T14:22:59.666Z,23.80
2018-05-17T14:25:25.566Z,23.70
2018-05-17T14:27:52.254Z,23.90
2018-05-17T14:30:18.191Z,23.80
2018-05-17T14:32:44.096Z,24.00
2018-05-17T14:35:10.008Z,24.10
2018-05-17T14:37:35.933Z,24.10
2018-05-17T14:40:01.905Z,24.00
2018-05-17T14:42:27.863Z,23.50
2018-05-17T14:44:53.975Z,24.00
2018-05-17T14:47:19.860Z,24.50
2018-05-17T14:49:46.270Z,24.60
2018-05-17T14:52:13.286Z,24.80
2018-05-17T14:54:39.648Z,24.60
2018-05-17T14:57:05.974Z,24.50
2018-05-17T14:59:32.796Z,25.20
2018-05-17T15:01:58.690Z,25.10
2018-05-17T15:04:24.860Z,24.90
2018-05-17T15:06:50.768Z,25.10
2018-05-17T15:09:16.677Z,24.90
2018-05-17T15:11:42.654Z,24.90
2018-05-17T15:14:09.309Z,25.00
2018-05-17T15:16:35.272Z,24.90
2018-05-17T15:19:01.177Z,24.70
2018-05-17T15:21:27.123Z,24.30
2018-05-17T15:23:53.096Z,24.50
2018-05-17T15:26:19.130Z,24.80
2018-05-17T15:28:45.159Z,24.70
2018-05-17T15:31:11.151Z,24.40
2018-05-17T15:33:37.817Z,24.50
2018-05-17T15:36:03.760Z,24.40
2018-05-17T15:38:29.730Z,24.50
2018-05-17T15:40:56.407Z,24.10
2018-05-17T15:43:22.362Z,24.00
2018-05-17T15:45:48.309Z,23.90
2018-05-17T15:48:15.079Z,24.20
2018-05-17T15:50:41.052Z,24.20
2018-05-17T15:53:07.598Z,24.10
2018-05-17T15:55:33.543Z,23.80
2018-05-17T15:58:00.183Z,24.00
2018-05-17T16:00:26.824Z,24.00
2018-05-17T16:02:52.739Z,24.00
2018-05-17T16:05:19.404Z,23.70
2018-05-17T16:07:45.338Z,23.70
2018-05-17T16:10:11.229Z,23.30
2018-05-17T16:12:37.192Z,23.00
2018-05-17T16:15:03.156Z,23.00
2018-05-17T16:17:29.049Z,22.70
2018-05-17T16:19:55.289Z,22.50
2018-05-17T16:22:21.240Z,22.60
2018-05-17T16:24:47.208Z,22.50
2018-05-17T16:27:13.159Z,22.40
2018-05-17T16:29:39.053Z,22.20
2018-05-17T16:32:05.009Z,22.20
2018-05-17T16:34:31.722Z,22.30
2018-05-17T16:36:57.668Z,22.20
2018-05-17T16:39:24.308Z,22.40
2018-05-17T16:41:51.009Z,22.40
2018-05-17T16:44:17.011Z,22.40
2018-05-17T16:46:42.916Z,22.40
2018-05-17T16:49:08.847Z,22.50
2018-05-17T16:51:34.843Z,22.40
2018-05-17T16:54:01.559Z,22.10
2018-05-17T16:56:27.465Z,22.10
2018-05-17T16:58:53.455Z,22.00
2018-05-17T17:01:19.308Z,21.90
2018-05-17T17:03:45.227Z,21.80
2018-05-17T17:06:11.162Z,21.70
2018-05-17T17:08:37.816Z,21.60
2018-05-17T17:11:04.521Z,21.50
2018-05-17T17:13:30.421Z,21.40
2018-05-17T17:15:56.316Z,21.40
2018-05-17T17:18:22.218Z,21.40
2018-05-17T17:20:48.867Z,21.40
2018-05-17T17:23:15.503Z,21.40
2018-05-17T17:25:42.157Z,21.30
2018-05-17T17:28:08.066Z,21.30
2018-05-17T17:30:34.742Z,21.20
2018-05-17T17:33:00.652Z,21.10
2018-05-17T17:35:26.585Z,21.10
2018-05-17T17:37:52.527Z,21.10
2018-05-17T17:40:18.475Z,21.00
2018-05-17T17:42:45.188Z,21.10
2018-05-17T17:45:11.151Z,21.00
2018-05-17T17:47:37.781Z,20.80
2018-05-17T17:50:04.500Z,20.70
2018-05-17T17:52:30.401Z,20.70
2018-05-17T17:54:56.309Z,20.60
2018-05-17T17:57:22.314Z,20.50
2018-05-17T17:59:48.224Z,20.40
2018-05-17T18:02:14.214Z,20.30
2018-05-17T18:04:40.054Z,20.20
2018-05-17T18:07:05.975Z,20.10
2018-05-17T18:09:31.872Z,20.10
2018-05-17T18:11:57.767Z,20.00
2018-05-17T18:14:23.968Z,19.90
2018-05-17T18:16:49.864Z,19.70
2018-05-17T18:19:22.631Z,19.80
2018-05-17T18:21:49.266Z,19.70
2018-05-17T18:24:15.929Z,19.60
2018-05-17T18:26:41.881Z,19.60
2018-05-17T18:29:07.801Z,19.60
2018-05-17T18:31:33.785Z,19.50
2018-05-17T18:33:59.699Z,19.50
2018-05-17T18:36:26.372Z,19.30
2018-05-17T18:38:52.285Z,19.30
2018-05-17T18:41:18.214Z,19.30
2018-05-17T18:43:44.139Z,19.20
2018-05-17T18:46:10.070Z,19.10
2018-05-17T18:48:35.963Z,19.10
2018-05-17T18:51:01.869Z,19.10
2018-05-17T18:53:28.525Z,19.00
2018-05-17T18:55:54.552Z,19.00
2018-05-17T18:58:20.405Z,18.90
2018-05-17T19:00:46.372Z,18.90
2018-05-17T19:03:12.324Z,18.80
2018-05-17T19:05:38.232Z,18.80
2018-05-17T19:08:04.158Z,18.80
2018-05-17T19:10:30.033Z,18.80
2018-05-17T19:12:56.043Z,18.80
2018-05-17T19:15:21.955Z,18.70
2018-05-17T19:17:48.168Z,18.60
2018-05-17T19:20:21.024Z,18.60
2018-05-17T19:22:46.917Z,18.60
2018-05-17T19:25:13.545Z,18.60
2018-05-17T19:27:39.456Z,18.60
2018-05-17T19:30:05.368Z,18.60
2018-05-17T19:32:31.273Z,18.60
2018-05-17T19:34:57.186Z,18.40
2018-05-17T19:37:23.149Z,18.40
2018-05-17T19:39:49.030Z,18.40
2018-05-17T19:42:14.931Z,18.40
2018-05-17T19:44:40.848Z,18.30
2018-05-17T19:47:06.741Z,18.30
2018-05-17T19:49:33.462Z,18.10
2018-05-17T19:51:59.370Z,18.10
2018-05-17T19:54:25.261Z,18.10
2018-05-17T19:56:51.194Z,17.90
2018-05-17T19:59:17.105Z,18.00
2018-05-17T20:01:42.999Z,17.90
2018-05-17T20:04:08.954Z,17.80
2018-05-17T20:06:34.864Z,17.80
2018-05-17T20:09:00.764Z,17.80
2018-05-17T20:11:27.091Z,17.70
2018-05-17T20:13:52.964Z,17.60
2018-05-17T20:16:18.873Z,17.50
2018-05-17T20:18:44.849Z,17.50
2018-05-17T20:21:10.685Z,17.30
2018-05-17T20:23:36.583Z,17.30
2018-05-17T20:26:03.221Z,17.20
2018-05-17T20:28:29.888Z,17.00
2018-05-17T20:30:55.799Z,17.00
2018-05-17T20:33:21.700Z,17.00
2018-05-17T20:35:48.446Z,16.80
2018-05-17T20:38:15.387Z,16.80
2018-05-17T20:40:42.032Z,16.60
2018-05-17T20:43:08.687Z,16.70
2018-05-17T20:45:34.609Z,16.70
2018-05-17T20:48:00.553Z,16.70
2018-05-17T20:50:27.492Z,16.70
2018-05-17T20:52:53.425Z,16.60
2018-05-17T20:55:19.536Z,16.50
2018-05-17T20:57:45.384Z,16.40
2018-05-17T21:00:11.499Z,16.40
2018-05-17T21:02:37.490Z,16.40
2018-05-17T21:05:03.418Z,16.40
2018-05-17T21:07:29.318Z,16.30
2018-05-17T21:09:55.215Z,16.20
2018-05-17T21:12:21.847Z,16.10
2018-05-17T21:14:47.734Z,16.00
2018-05-17T21:17:13.688Z,15.90
2018-05-17T21:19:39.655Z,15.70
2018-05-17T21:22:05.535Z,15.50
2018-05-17T21:24:31.451Z,15.60
2018-05-17T21:26:57.336Z,15.50
2018-05-17T21:29:23.279Z,15.40
2018-05-17T21:31:49.167Z,15.30
2018-05-17T21:34:15.052Z,15.30
2018-05-17T21:36:41.718Z,15.20
2018-05-17T21:39:07.615Z,15.20
2018-05-17T21:41:33.519Z,15.10
2018-05-17T21:44:00.157Z,15.10
2018-05-17T21:46:26.794Z,15.20
2018-05-17T21:48:53.784Z,15.10
2018-05-17T21:51:19.691Z,15.10
2018-05-17T21:53:45.685Z,15.00
2018-05-17T21:56:11.511Z,14.70
2018-05-17T21:58:38.139Z,14.60
2018-05-17T22:01:04.793Z,14.60
2018-05-17T22:03:31.436Z,14.70
2018-05-17T22:05:57.353Z,14.70
2018-05-17T22:08:23.266Z,14.60
2018-05-17T22:10:50.028Z,14.40
2018-05-17T22:13:15.945Z,14.40
2018-05-17T22:15:41.863Z,14.30
2018-05-17T22:18:07.777Z,14.20
2018-05-17T22:20:33.675Z,14.20
2018-05-17T22:22:59.687Z,14.20
2018-05-17T22:25:25.589Z,14.00
2018-05-17T22:27:51.488Z,14.00
2018-05-17T22:30:17.379Z,14.00
2018-05-17T22:32:44.014Z,13.80
2018-05-17T22:35:10.665Z,13.60
2018-05-17T22:37:36.592Z,13.60
2018-05-17T22:40:02.689Z,13.60
2018-05-17T22:42:29.443Z,13.60
2018-05-17T22:44:55.341Z,13.60
2018-05-17T22:47:21.268Z,13.60
2018-05-17T22:49:47.953Z,13.50
2018-05-17T22:52:13.983Z,13.40
2018-05-17T22:54:39.893Z,13.40
2018-05-17T22:57:10.756Z,13.40
2018-05-17T22:59:36.692Z,13.30
2018-05-17T23:02:02.573Z,13.30
2018-05-17T23:04:28.493Z,13.20
2018-05-17T23:06:54.419Z,13.30
2018-05-17T23:09:20.317Z,13.10
2018-05-17T23:11:46.206Z,13.10
2018-05-17T23:14:12.076Z,13.20
2018-05-17T23:16:37.988Z,13.00
2018-05-17T23:19:03.881Z,13.20
2018-05-17T23:21:30.525Z,13.10
2018-05-17T23:23:57.168Z,13.00
2018-05-17T23:26:23.789Z,13.10
2018-05-17T23:28:50.426Z,13.00
2018-05-17T23:31:17.047Z,12.90
2018-05-17T23:33:42.944Z,12.80
2018-05-17T23:36:08.846Z,13.00
2018-05-17T23:38:34.931Z,12.90
2018-05-17T23:41:14.104Z,12.80
2018-05-17T23:43:40.034Z,12.80
2018-05-17T23:46:05.950Z,12.70
2018-05-17T23:48:31.971Z,12.70
2018-05-17T23:50:57.878Z,12.60
2018-05-17T23:53:23.796Z,12.90
2018-05-17T23:55:49.695Z,12.70
2018-05-17T23:58:16.394Z,12.60
